createdAt,value
2022-10-23T00:01:41.524Z,17.80
2022-10-23T00:04:16.994Z,17.53
2022-10-23T00:06:44.381Z,17.57
2022-10-23T00:09:13.327Z,17.92
2022-10-23T00:11:41.378Z,17.94
2022-10-23T00:14:09.090Z,17.89
2022-10-23T00:16:36.287Z,17.05
2022-10-23T00:19:03.750Z,17.23
2022-10-23T00:21:30.422Z,17.33
2022-10-23T00:23:57.372Z,17.56
2022-10-23T00:26:24.174Z,17.67
2022-10-23T00:28:57.191Z,17.12
2022-10-23T00:31:25.270Z,17.23
2022-10-23T00:33:52.515Z,17.02
2022-10-23T00:36:21.220Z,17.11
2022-10-23T00:38:49.196Z,17.01
2022-10-23T00:41:28.475Z,17.10
2022-10-23T00:44:24.312Z,16.82
2022-10-23T00:46:50.951Z,17.04
2022-10-23T00:49:17.485Z,16.99
2022-10-23T00:51:51.843Z,17.43
2022-10-23T00:54:24.377Z,17.44
2022-10-23T00:56:54.672Z,17.42
2022-10-23T00:59:21.216Z,17.54
2022-10-23T01:01:48.357Z,17.45
2022-10-23T01:04:15.188Z,17.40
2022-10-23T01:06:46.603Z,17.13
2022-10-23T01:09:28.089Z,17.38
2022-10-23T01:12:24.247Z,16.89
2022-10-23T01:15:07.844Z,17.03
2022-10-23T01:17:45.552Z,17.07
2022-10-23T01:20:33.019Z,17.20
2022-10-23T01:23:21.458Z,17.52
2022-10-23T01:26:07.889Z,17.60
2022-10-23T01:28:59.292Z,17.54
2022-10-23T01:31:42.462Z,17.76
2022-10-23T01:34:23.620Z,17.71
2022-10-23T01:36:53.604Z,17.71
2022-10-23T01:39:35.719Z,17.74
2022-10-23T01:42:15.209Z,17.83
2022-10-23T01:44:51.539Z,17.79
2022-10-23T01:47:25.652Z,17.67
2022-10-23T01:49:53.592Z,17.57
2022-10-23T01:52:21.047Z,17.47
2022-10-23T01:54:50.752Z,17.48
2022-10-23T01:57:20.392Z,17.46
2022-10-23T01:59:53.453Z,17.25
2022-10-23T02:02:22.466Z,17.14
2022-10-23T02:04:57.076Z,17.09
2022-10-23T02:07:24.340Z,17.17
2022-10-23T02:09:50.959Z,16.97
2022-10-23T02:13:13.887Z,17.07
2022-10-23T02:16:18.780Z,17.00
2022-10-23T02:19:29.814Z,16.73
2022-10-23T02:22:07.563Z,16.73
2022-10-23T02:25:08.359Z,16.73
2022-10-23T02:27:58.319Z,16.72
2022-10-23T02:30:25.065Z,16.77
2022-10-23T02:32:55.252Z,16.82
2022-10-23T02:35:24.768Z,16.72
2022-10-23T02:37:59.877Z,16.68
2022-10-23T02:40:41.084Z,16.65
2022-10-23T02:43:36.707Z,16.62
2022-10-23T02:46:30.601Z,16.51
2022-10-23T02:49:16.743Z,16.45
2022-10-23T02:52:28.191Z,16.48
2022-10-23T02:55:29.022Z,16.45
2022-10-23T02:58:27.448Z,16.06
2022-10-23T03:01:09.590Z,16.31
2022-10-23T03:03:45.715Z,16.48
2022-10-23T03:06:13.118Z,16.46
2022-10-23T03:09:03.994Z,16.62
2022-10-23T03:11:30.631Z,16.57
2022-10-23T03:13:57.388Z,16.31
2022-10-23T03:16:24.395Z,16.38
2022-10-23T03:18:51.036Z,16.21
2022-10-23T03:21:17.612Z,16.46
2022-10-23T03:23:44.146Z,16.49
2022-10-23T03:26:10.685Z,16.52
2022-10-23T03:28:37.234Z,16.46
2022-10-23T03:31:04.514Z,16.33
2022-10-23T03:33:32.406Z,16.40
2022-10-23T03:35:58.937Z,16.29
2022-10-23T03:38:25.489Z,16.26
2022-10-23T03:40:52.159Z,16.24
2022-10-23T03:43:18.699Z,16.25
2022-10-23T03:45:45.214Z,16.22
2022-10-23T03:48:11.773Z,16.30
2022-10-23T03:50:38.286Z,16.33
2022-10-23T03:53:04.799Z,16.34
2022-10-23T03:55:31.640Z,16.25
2022-10-23T03:57:58.198Z,16.28
2022-10-23T04:00:24.811Z,16.24
2022-10-23T04:02:51.377Z,16.20
2022-10-23T04:05:18.029Z,16.16
2022-10-23T04:07:44.549Z,16.14
2022-10-23T04:10:11.110Z,16.03
2022-10-23T04:12:37.659Z,15.41
2022-10-23T04:15:04.785Z,15.64
2022-10-23T04:17:31.443Z,15.41
2022-10-23T04:19:57.972Z,15.70
2022-10-23T04:22:27.477Z,15.88
2022-10-23T04:24:55.381Z,15.79
2022-10-23T04:27:21.983Z,15.85
2022-10-23T04:29:49.258Z,15.78
2022-10-23T04:32:15.994Z,15.42
2022-10-23T04:34:42.579Z,15.51
2022-10-23T04:37:09.099Z,15.06
2022-10-23T04:39:35.634Z,15.48
2022-10-23T04:42:02.216Z,15.69
2022-10-23T04:44:28.739Z,15.53
2022-10-23T04:46:55.376Z,15.80
2022-10-23T04:49:21.974Z,15.90
2022-10-23T04:51:48.512Z,15.92
2022-10-23T04:54:15.070Z,15.93
2022-10-23T04:56:41.633Z,15.90
2022-10-23T04:59:08.254Z,15.91
2022-10-23T05:01:35.014Z,15.84
2022-10-23T05:04:01.684Z,15.77
2022-10-23T05:06:28.203Z,15.72
2022-10-23T05:08:54.896Z,15.73
2022-10-23T05:11:21.795Z,15.71
2022-10-23T05:13:48.331Z,15.73
2022-10-23T05:16:42.172Z,15.63
2022-10-23T05:19:12.535Z,15.56
2022-10-23T05:21:40.293Z,15.51
2022-10-23T05:24:07.091Z,15.32
2022-10-23T05:26:33.605Z,15.37
2022-10-23T05:29:00.125Z,15.40
2022-10-23T05:31:26.712Z,15.35
2022-10-23T05:33:56.199Z,15.22
2022-10-23T05:36:25.446Z,15.28
2022-10-23T05:38:52.611Z,14.97
2022-10-23T05:41:21.517Z,14.47
2022-10-23T05:43:48.082Z,14.54
2022-10-23T05:46:14.681Z,14.90
2022-10-23T05:48:41.212Z,14.80
2022-10-23T05:51:10.632Z,15.08
2022-10-23T05:53:40.139Z,15.23
2022-10-23T05:56:09.412Z,15.26
2022-10-23T05:58:36.334Z,15.20
2022-10-23T06:01:08.900Z,15.11
2022-10-23T06:03:36.725Z,15.08
2022-10-23T06:06:04.255Z,15.33
2022-10-23T06:08:35.074Z,14.89
2022-10-23T06:11:28.544Z,15.15
2022-10-23T06:13:55.103Z,15.18
2022-10-23T06:16:27.376Z,15.15
2022-10-23T06:18:55.060Z,14.99
2022-10-23T06:21:21.884Z,15.17
2022-10-23T06:23:48.438Z,15.27
2022-10-23T06:26:17.846Z,15.19
2022-10-23T06:28:47.079Z,15.39
2022-10-23T06:31:16.639Z,15.27
2022-10-23T06:33:43.233Z,15.51
2022-10-23T06:36:10.662Z,15.47
2022-10-23T06:38:40.337Z,15.52
2022-10-23T06:41:17.231Z,15.62
2022-10-23T06:43:43.883Z,15.78
2022-10-23T06:46:10.909Z,15.89
2022-10-23T06:48:37.460Z,15.82
2022-10-23T06:51:07.979Z,15.30
2022-10-23T06:53:38.522Z,15.66
2022-10-23T06:56:07.978Z,16.11
2022-10-23T06:58:38.905Z,16.38
2022-10-23T07:01:11.350Z,16.25
2022-10-23T07:03:37.962Z,16.60
2022-10-23T07:06:07.666Z,16.39
2022-10-23T07:08:34.359Z,16.80
2022-10-23T07:11:10.404Z,16.84
2022-10-23T07:13:38.609Z,17.05
2022-10-23T07:16:20.455Z,17.24
2022-10-23T07:18:48.161Z,17.45
2022-10-23T07:21:14.743Z,17.35
2022-10-23T07:23:41.513Z,17.45
2022-10-23T07:26:16.856Z,17.44
2022-10-23T07:28:46.314Z,17.42
2022-10-23T07:31:13.452Z,17.55
2022-10-23T07:33:40.087Z,17.87
2022-10-23T07:36:08.915Z,18.12
2022-10-23T07:38:35.864Z,18.33
2022-10-23T07:41:02.898Z,18.43
2022-10-23T07:43:29.629Z,18.52
2022-10-23T07:45:56.625Z,18.05
2022-10-23T07:48:24.015Z,18.39
2022-10-23T07:50:51.288Z,18.62
2022-10-23T07:53:25.107Z,18.47
2022-10-23T07:55:57.924Z,18.79
2022-10-23T07:58:25.452Z,18.97
2022-10-23T08:01:03.497Z,18.10
2022-10-23T08:03:33.169Z,18.86
2022-10-23T08:06:00.524Z,18.97
2022-10-23T08:08:27.480Z,19.27
2022-10-23T08:10:55.304Z,19.37
2022-10-23T08:13:22.904Z,19.38
2022-10-23T08:15:51.407Z,19.58
2022-10-23T08:18:18.218Z,19.35
2022-10-23T08:20:48.170Z,19.59
2022-10-23T08:23:18.426Z,19.71
2022-10-23T08:25:46.279Z,19.65
2022-10-23T08:28:12.857Z,19.85
2022-10-23T08:30:39.427Z,20.01
2022-10-23T08:33:07.007Z,20.04
2022-10-23T08:35:37.853Z,20.13
2022-10-23T08:38:05.985Z,19.75
2022-10-23T08:40:34.865Z,20.11
2022-10-23T08:43:24.627Z,20.00
2022-10-23T08:46:01.274Z,20.27
2022-10-23T08:48:38.496Z,19.58
2022-10-23T08:51:13.910Z,20.08
2022-10-23T08:53:54.359Z,20.17
2022-10-23T08:56:31.887Z,20.59
2022-10-23T08:59:20.375Z,20.98
2022-10-23T09:01:55.670Z,21.16
2022-10-23T09:04:22.400Z,21.25
2022-10-23T09:07:03.727Z,21.51
2022-10-23T09:10:02.696Z,21.44
2022-10-23T09:12:30.819Z,21.60
2022-10-23T09:15:05.537Z,21.62
2022-10-23T09:17:35.754Z,21.81
2022-10-23T09:20:25.175Z,22.09
2022-10-23T09:23:04.596Z,21.66
2022-10-23T09:25:38.747Z,22.26
2022-10-23T09:28:05.976Z,22.82
2022-10-23T09:30:39.933Z,22.39
2022-10-23T09:33:26.052Z,21.76
2022-10-23T09:36:01.146Z,22.11
2022-10-23T09:38:38.347Z,22.35
2022-10-23T09:41:20.299Z,22.58
2022-10-23T09:43:47.497Z,21.68
2022-10-23T09:46:14.077Z,21.66
2022-10-23T09:48:42.430Z,21.24
2022-10-23T09:51:19.933Z,21.50
2022-10-23T09:53:57.908Z,21.25
2022-10-23T09:56:33.062Z,21.53
2022-10-23T09:59:05.599Z,22.42
2022-10-23T10:01:43.857Z,22.42
2022-10-23T10:04:10.649Z,22.50
2022-10-23T10:06:37.392Z,22.30
2022-10-23T10:09:12.561Z,22.08
2022-10-23T10:11:59.213Z,22.18
2022-10-23T10:15:07.181Z,22.52
2022-10-23T10:17:58.488Z,22.21
2022-10-23T10:20:49.772Z,22.99
2022-10-23T10:23:43.801Z,23.40
2022-10-23T10:29:05.637Z,24.33
2022-10-23T10:32:05.975Z,24.60
2022-10-23T10:34:57.797Z,24.61
2022-10-23T10:38:05.491Z,23.95
2022-10-23T10:40:55.848Z,23.92
2022-10-23T10:44:31.744Z,24.13
2022-10-23T10:47:22.241Z,23.54
2022-10-23T10:50:23.215Z,23.30
2022-10-23T10:53:03.361Z,23.03
2022-10-23T10:55:34.591Z,22.68
2022-10-23T10:58:21.430Z,22.69
2022-10-23T11:00:54.824Z,22.77
2022-10-23T11:03:46.968Z,23.16
2022-10-23T11:06:18.907Z,23.33
2022-10-23T11:09:03.850Z,23.61
2022-10-23T11:11:43.539Z,23.36
2022-10-23T11:14:23.282Z,22.94
2022-10-23T11:16:53.201Z,23.16
2022-10-23T11:19:30.930Z,23.10
2022-10-23T11:22:39.476Z,23.08
2022-10-23T11:25:47.202Z,22.72
2022-10-23T11:28:32.596Z,22.42
2022-10-23T11:31:14.179Z,22.66
2022-10-23T11:34:39.253Z,23.40
2022-10-23T11:37:06.690Z,23.43
2022-10-23T11:39:35.505Z,22.92
2022-10-23T11:44:43.293Z,19.88
2022-10-23T11:47:40.007Z,20.42
2022-10-23T11:50:06.966Z,20.66
2022-10-23T11:52:45.729Z,20.64
2022-10-23T11:55:22.520Z,20.52
2022-10-23T11:58:24.395Z,20.77
2022-10-23T12:01:25.378Z,21.09
2022-10-23T12:04:06.828Z,21.17
2022-10-23T12:06:41.727Z,21.53
2022-10-23T12:09:39.916Z,21.09
2022-10-23T12:12:09.538Z,21.13
2022-10-23T12:14:38.802Z,20.46
2022-10-23T12:17:35.767Z,20.55
2022-10-23T12:20:11.115Z,21.17
2022-10-23T12:22:51.680Z,21.10
2022-10-23T12:25:28.005Z,21.87
2022-10-23T12:28:19.532Z,21.86
2022-10-23T12:31:31.007Z,21.38
2022-10-23T12:34:48.179Z,21.31
2022-10-23T12:37:55.110Z,20.99
2022-10-23T12:40:22.409Z,20.91
2022-10-23T12:42:55.702Z,20.92
2022-10-23T12:45:30.460Z,21.38
2022-10-23T12:47:57.388Z,21.69
2022-10-23T12:50:28.409Z,22.03
2022-10-23T12:52:56.094Z,22.45
2022-10-23T12:55:25.931Z,21.81
2022-10-23T12:57:56.626Z,21.50
2022-10-23T13:00:24.955Z,21.16
2022-10-23T13:03:03.829Z,21.38
2022-10-23T13:05:32.727Z,20.68
2022-10-23T13:08:02.453Z,21.53
2022-10-23T13:10:30.930Z,21.43
2022-10-23T13:13:04.650Z,21.18
2022-10-23T13:15:43.973Z,21.09
2022-10-23T13:18:15.425Z,21.52
2022-10-23T13:20:56.723Z,21.76
2022-10-23T13:23:34.176Z,21.61
2022-10-23T13:26:20.399Z,20.87
2022-10-23T13:28:47.282Z,20.86
2022-10-23T13:31:13.692Z,20.98
2022-10-23T13:33:41.549Z,20.66
2022-10-23T13:36:13.525Z,20.23
2022-10-23T13:39:02.347Z,19.68
2022-10-23T13:41:40.941Z,19.33
2022-10-23T13:44:12.175Z,19.80
2022-10-23T13:46:38.708Z,19.91
2022-10-23T13:49:05.521Z,19.58
2022-10-23T13:51:42.686Z,19.87
2022-10-23T13:54:16.569Z,20.20
2022-10-23T13:56:43.338Z,20.24
2022-10-23T13:59:16.460Z,20.85
2022-10-23T14:01:45.695Z,21.41
2022-10-23T14:04:13.324Z,21.60
2022-10-23T14:06:40.357Z,21.48
2022-10-23T14:09:12.038Z,21.67
2022-10-23T14:11:39.506Z,21.12
2022-10-23T14:14:06.104Z,21.41
2022-10-23T14:16:32.879Z,21.67
2022-10-23T14:18:59.457Z,21.34
2022-10-23T14:21:26.070Z,20.92
2022-10-23T14:23:53.868Z,20.92
2022-10-23T14:26:24.764Z,21.34
2022-10-23T14:28:58.366Z,20.97
2022-10-23T14:31:27.452Z,20.15
2022-10-23T14:33:58.857Z,20.08
2022-10-23T14:36:30.872Z,21.01
2022-10-23T14:39:05.300Z,20.60
2022-10-23T14:41:32.316Z,20.82
2022-10-23T14:43:58.938Z,20.97
2022-10-23T14:46:25.891Z,20.70
2022-10-23T14:48:56.446Z,20.75
2022-10-23T14:51:30.072Z,20.11
2022-10-23T14:54:01.785Z,20.08
2022-10-23T14:56:34.811Z,19.97
2022-10-23T14:59:04.538Z,20.20
2022-10-23T15:01:45.544Z,19.84
2022-10-23T15:04:15.897Z,19.29
2022-10-23T15:06:43.446Z,19.76
2022-10-23T15:09:10.098Z,18.81
2022-10-23T15:11:36.690Z,18.71
2022-10-23T15:14:03.442Z,18.57
2022-10-23T15:16:30.591Z,18.58
2022-10-23T15:18:57.654Z,18.65
2022-10-23T15:21:24.246Z,19.20
2022-10-23T15:23:51.346Z,18.80
2022-10-23T15:26:22.762Z,18.96
2022-10-23T15:28:59.088Z,18.69
2022-10-23T15:31:37.860Z,18.55
2022-10-23T15:34:05.861Z,18.62
2022-10-23T15:36:32.903Z,17.78
2022-10-23T15:39:00.240Z,17.22
2022-10-23T15:41:34.670Z,17.50
2022-10-23T15:44:03.324Z,16.92
2022-10-23T15:46:30.260Z,17.59
2022-10-23T15:48:57.021Z,17.69
2022-10-23T15:51:23.745Z,17.54
2022-10-23T15:53:50.304Z,17.25
2022-10-23T15:56:16.895Z,17.44
2022-10-23T15:58:43.463Z,17.38
2022-10-23T16:01:10.272Z,17.13
2022-10-23T16:03:38.652Z,17.41
2022-10-23T16:06:08.459Z,16.57
2022-10-23T16:08:35.622Z,16.95
2022-10-23T16:11:03.290Z,17.42
2022-10-23T16:13:29.969Z,17.37
2022-10-23T16:15:56.484Z,16.64
2022-10-23T16:18:23.674Z,15.92
2022-10-23T16:20:55.048Z,16.74
2022-10-23T16:23:21.932Z,16.73
2022-10-23T16:25:48.468Z,16.48
2022-10-23T16:28:14.988Z,16.25
2022-10-23T16:30:42.475Z,16.38
2022-10-23T16:33:09.586Z,16.78
2022-10-23T16:35:39.686Z,16.64
2022-10-23T16:38:06.261Z,16.85
2022-10-23T16:40:32.785Z,16.42
2022-10-23T16:42:59.487Z,15.95
2022-10-23T16:45:26.135Z,15.73
2022-10-23T16:47:52.670Z,16.47
2022-10-23T16:50:19.215Z,16.73
2022-10-23T16:52:46.049Z,16.42
2022-10-23T16:55:13.374Z,16.61
2022-10-23T16:57:40.058Z,16.88
2022-10-23T17:00:07.562Z,16.45
2022-10-23T17:02:34.309Z,16.09
2022-10-23T17:05:01.000Z,16.15
2022-10-23T17:07:27.572Z,15.83
2022-10-23T17:09:54.131Z,15.64
2022-10-23T17:12:20.683Z,15.32
2022-10-23T17:14:47.249Z,15.15
2022-10-23T17:17:13.791Z,15.08
2022-10-23T17:19:46.056Z,15.13
2022-10-23T17:22:14.191Z,15.75
2022-10-23T17:24:42.179Z,15.98
2022-10-23T17:27:09.661Z,16.31
2022-10-23T17:29:36.366Z,16.19
2022-10-23T17:32:04.078Z,15.55
2022-10-23T17:34:30.639Z,15.01
2022-10-23T17:36:57.612Z,15.07
2022-10-23T17:39:28.045Z,15.41
2022-10-23T17:41:55.571Z,16.24
2022-10-23T17:44:22.652Z,16.30
2022-10-23T17:46:54.138Z,16.04
2022-10-23T17:49:21.831Z,15.91
2022-10-23T17:51:53.811Z,16.59
2022-10-23T17:54:20.400Z,16.61
2022-10-23T17:56:47.013Z,16.42
2022-10-23T17:59:17.465Z,16.69
2022-10-23T18:01:46.504Z,16.57
2022-10-23T18:04:13.485Z,16.93
2022-10-23T18:06:46.891Z,17.14
2022-10-23T18:09:13.479Z,16.23
2022-10-23T18:11:46.833Z,16.75
2022-10-23T18:14:17.025Z,16.99
2022-10-23T18:16:46.032Z,16.42
2022-10-23T18:19:14.428Z,16.35
2022-10-23T18:21:41.037Z,15.60
2022-10-23T18:24:07.641Z,15.06
2022-10-23T18:26:35.150Z,14.95
2022-10-23T18:29:07.093Z,14.83
2022-10-23T18:31:35.546Z,14.61
2022-10-23T18:34:09.326Z,14.37
2022-10-23T18:36:39.062Z,14.17
2022-10-23T18:39:09.493Z,15.04
2022-10-23T18:41:41.513Z,14.40
2022-10-23T18:44:08.544Z,14.63
2022-10-23T18:46:35.495Z,14.19
2022-10-23T18:49:02.111Z,14.40
2022-10-23T18:51:33.313Z,14.55
2022-10-23T18:54:03.496Z,14.99
2022-10-23T18:56:30.403Z,14.53
2022-10-23T18:59:01.691Z,14.05
2022-10-23T19:01:30.336Z,14.30
2022-10-23T19:03:59.240Z,14.01
2022-10-23T19:06:25.900Z,14.24
2022-10-23T19:08:52.526Z,15.15
2022-10-23T19:11:22.188Z,14.68
2022-10-23T19:13:48.810Z,14.43
2022-10-23T19:16:33.532Z,14.38
2022-10-23T19:19:11.721Z,14.65
2022-10-23T19:21:39.535Z,14.72
2022-10-23T19:24:13.870Z,15.04
2022-10-23T19:26:42.048Z,14.13
2022-10-23T19:29:13.084Z,13.32
2022-10-23T19:31:43.108Z,13.85
2022-10-23T19:34:09.644Z,14.63
2022-10-23T19:36:36.257Z,14.95
2022-10-23T19:39:02.830Z,15.02
2022-10-23T19:41:31.081Z,15.73
2022-10-23T19:43:57.883Z,15.78
2022-10-23T19:46:24.776Z,15.41
2022-10-23T19:48:51.348Z,14.67
2022-10-23T19:51:17.993Z,14.78
2022-10-23T19:53:44.591Z,14.89
2022-10-23T19:56:12.832Z,15.65
2022-10-23T19:58:40.343Z,14.89
2022-10-23T20:01:13.876Z,14.63
2022-10-23T20:03:50.578Z,15.00
2022-10-23T20:06:22.615Z,15.55
2022-10-23T20:08:50.116Z,15.09
2022-10-23T20:11:28.220Z,15.78
2022-10-23T20:13:55.263Z,15.67
2022-10-23T20:16:32.495Z,16.32
2022-10-23T20:19:03.167Z,14.86
2022-10-23T20:21:29.901Z,15.66
2022-10-23T20:23:57.692Z,15.57
2022-10-23T20:26:24.288Z,15.95
2022-10-23T20:28:55.871Z,14.43
2022-10-23T20:31:25.483Z,15.68
2022-10-23T20:33:53.563Z,16.21
2022-10-23T20:36:31.264Z,16.30
2022-10-23T20:39:01.513Z,15.80
2022-10-23T20:41:29.109Z,15.43
2022-10-23T20:43:56.339Z,16.20
2022-10-23T20:46:22.967Z,16.32
2022-10-23T20:48:49.902Z,16.25
2022-10-23T20:51:20.310Z,16.25
2022-10-23T20:53:48.173Z,16.12
2022-10-23T20:56:32.503Z,16.17
2022-10-23T20:59:02.135Z,15.86
2022-10-23T21:01:30.406Z,15.57
2022-10-23T21:03:59.718Z,15.59
2022-10-23T21:06:33.964Z,15.23
2022-10-23T21:09:06.663Z,14.55
2022-10-23T21:11:34.573Z,15.12
2022-10-23T21:14:01.207Z,15.41
2022-10-23T21:16:36.935Z,15.39
2022-10-23T21:19:04.500Z,15.26
2022-10-23T21:21:33.059Z,15.10
2022-10-23T21:24:00.866Z,15.37
2022-10-23T21:26:29.502Z,14.49
2022-10-23T21:29:13.759Z,15.25
2022-10-23T21:31:42.663Z,15.26
2022-10-23T21:37:00.185Z,15.69
2022-10-23T21:39:28.492Z,15.66
2022-10-23T21:41:55.016Z,15.82
2022-10-23T21:44:21.584Z,16.02
2022-10-23T21:46:48.233Z,16.02
2022-10-23T21:49:14.812Z,16.27
2022-10-23T21:51:41.419Z,16.43
2022-10-23T21:54:13.048Z,16.23
2022-10-23T21:56:48.531Z,16.26
2022-10-23T21:59:19.754Z,16.30
2022-10-23T22:01:48.647Z,15.71
2022-10-23T22:04:18.119Z,16.08
2022-10-23T22:06:47.377Z,15.67
2022-10-23T22:09:19.181Z,15.26
2022-10-23T22:11:46.086Z,15.12
2022-10-23T22:14:12.676Z,14.86
2022-10-23T22:16:39.376Z,14.57
2022-10-23T22:19:05.980Z,14.47
2022-10-23T22:21:32.570Z,13.89
2022-10-23T22:24:00.984Z,14.17
2022-10-23T22:26:35.666Z,13.76
2022-10-23T22:29:07.455Z,14.52
2022-10-23T22:31:35.956Z,14.81
2022-10-23T22:34:18.936Z,14.95
2022-10-23T22:36:55.544Z,15.11
2022-10-23T22:39:22.991Z,15.66
2022-10-23T22:41:49.689Z,16.15
2022-10-23T22:44:16.643Z,16.31
2022-10-23T22:46:43.652Z,16.49
2022-10-23T22:49:10.718Z,16.53
2022-10-23T22:51:39.275Z,16.38
2022-10-23T22:54:06.157Z,16.46
2022-10-23T22:56:32.869Z,16.46
2022-10-23T22:58:59.404Z,16.52
2022-10-23T23:01:40.172Z,15.21
2022-10-23T23:04:14.068Z,15.48
2022-10-23T23:06:46.487Z,15.40
2022-10-23T23:09:17.893Z,15.97
2022-10-23T23:11:52.036Z,16.32
2022-10-23T23:14:23.408Z,16.58
2022-10-23T23:16:52.990Z,16.55
2022-10-23T23:19:20.223Z,16.50
2022-10-23T23:21:46.773Z,16.61
2022-10-23T23:24:13.658Z,16.05
2022-10-23T23:26:40.572Z,15.51
2022-10-23T23:29:07.091Z,15.76
2022-10-23T23:31:33.631Z,15.99
2022-10-23T23:34:00.891Z,16.23
2022-10-23T23:36:28.401Z,15.67
2022-10-23T23:38:57.302Z,16.07
2022-10-23T23:41:25.615Z,16.30
2022-10-23T23:43:57.568Z,16.23
2022-10-23T23:46:25.131Z,15.99
2022-10-23T23:48:51.673Z,15.57
2022-10-23T23:51:22.468Z,15.68
2022-10-23T23:53:50.151Z,15.08
2022-10-23T23:56:17.103Z,15.23
2022-10-23T23:58:43.612Z,15.77
